No particular awareness of the weather is required.    There are no Weather-warnings
 Banner
iom-flag.gif  iom-flag.gif


Ballaugh webcam more information Ballaugh webcam


Thunder radar more information blitzortung!


Rain radar more information rain snow radar


Visit our other weather sites:

Template documentation
and downloads

And another site



Nearby METAR Reports

   
EGNS - Isle Of Man/Rona, United Kingdom
Distance from station: SSW 16 mi
Updated: 01-06-2020 04:50
Clear  
Clear  
   Wind: ENE 12.7 mph
Wind: ENE 12.7 mph
Temperature: 14°C
Dew Point: 7°C
Humidity: 63%
Barometer: 1025 hPa
Visibility: More than 6 mi
Cloud details: Clear ft
EGNS 010350Z 06011KT CAVOK 14/07 Q1025
EGAC - Belfast Harbour, United Kingdom
Distance from station: WNW 57 mi
Updated: 01-06-2020 04:50
Clear  
Clear  
   Wind: NE 5.8 mph
Wind: NE 5.8 mph
Temperature: 10°C
Wind Chill: 9°C
Dew Point: 8°C
Humidity: 88%
Barometer: 1025 hPa
Clouds: Clear
Visibility: More than 6 mi
Cloud details: Clear ft
EGAC 010350Z AUTO 04005KT 9999 NCD 10/08 Q1025
EGAA - Belfast/Aldergro, United Kingdom
Distance from station: WNW 71 mi
Updated: 01-06-2020 04:50
Clear  
Clear  
   Wind: ESE 3.5 mph
Wind: ESE 3.5 mph
Temperature: 11°C
Dew Point: 7°C
Humidity: 77%
Barometer: 1025 hPa
Visibility: More than 6 mi
Cloud details: Clear ft
EGAA 010350Z 11003KT CAVOK 11/07 Q1025
EGNH - Blackpool Airpor, United Kingdom
Distance from station: ESE 73 mi
Updated: 31-05-2020 20:50
NOT Current
Clear  
Clear  
   Wind: ESE 13.8 mph
Wind: ESE 13.8 mph
Temperature: 21°C
Dew Point: 7°C
Humidity: 40%
Barometer: 1024 hPa
Visibility: More than 6 mi
Cloud details: Clear ft
EGNH 311950Z 11012KT CAVOK 21/07 Q1024
EGOV - Valley Raf, United Kingdom
Distance from station: S 73 mi
Updated: 01-06-2020 04:50
Clear  
Clear  
   Wind: NE 4.6 mph
Wind: NE 4.6 mph
Temperature: 13°C
Dew Point: 8°C
Humidity: 72%
Barometer: 1024 hPa
Clouds: Clear
Visibility: More than 6 mi
Cloud details: Clear ft
EGOV 010350Z AUTO 05004KT 9999 NCD 13/08 Q1024
EGPK - Prestwick(Civ/Na, United Kingdom
Distance from station: N 82 mi
Updated: 01-06-2020 04:50
Clear  
Clear  
   Wind: Calm
Wind: Calm
Temperature: 9°C
Dew Point: 7°C
Humidity: 87%
Barometer: 1026 hPa
Visibility: More than 6 mi
Cloud details: Clear ft
EGPK 010350Z 00000KT CAVOK 09/07 Q1026
EIDW - Dublin Airport, Ireland
Distance from station: SW 93 mi
Updated: 01-06-2020 05:00
Clear  
Clear  
   Wind: ESE 4.6 mph
Wind: ESE 4.6 mph
Temperature: 7°C
Wind Chill: 6°C
Dew Point: 7°C
Humidity: 100%
Barometer: 1024 hPa
Visibility: More than 6 mi
Cloud details: Clear ft
EIDW 010400Z 11004KT CAVOK 07/07 Q1024 NOSIG
EGGP - Liverpool Airpor, United Kingdom
Distance from station: SE 98 mi
Updated: 01-06-2020 04:50
Clear  
Clear  
   Wind: ENE 6.9 mph
Wind: ENE 6.9 mph
Temperature: 12°C
Dew Point: 6°C
Humidity: 67%
Barometer: 1026 hPa
Clouds: Clear
Visibility: More than 6 mi
Cloud details: Clear ft
EGGP 010350Z AUTO 07006KT 9999 NCD 12/06 Q1026
EGPF - Glasgow Airport, United Kingdom
Distance from station: N 107 mi
Updated: 01-06-2020 04:50
Clear  
Clear  
   Wind: varies 1.2 mph
Wind: varies 1.2 mph
Temperature: 8°C
Dew Point: 6°C
Humidity: 87%
Barometer: 1027 hPa
Clouds: Clear
Visibility: More than 6 mi
Cloud details: Clear ft
EGPF 010350Z AUTO VRB01KT 9999 NCD 08/06 Q1027
EGCC - Manchester Intl, United Kingdom
Distance from station: SE 114 mi
Updated: 01-06-2020 04:50
Clear  
Clear  
   Wind: ENE 5.8 mph
Wind: ENE 5.8 mph
Temperature: 11°C
Dew Point: 5°C
Humidity: 67%
Barometer: 1026 hPa
Clouds: Clear
Visibility: More than 6 mi
Cloud details: Clear ft
EGCC 010350Z AUTO 07005KT 9999 NCD 11/05 Q1026 NOSIG
EGNM - Leeds And Bradfo, United Kingdom
Distance from station: ESE 122 mi
Updated: 30-05-2020 11:50
NOT Current
Clear  
Clear  
   Wind: East 10.4 mph
Wind: East 10.4 mph
Temperature: 17°C
Dew Point: 7°C
Humidity: 52%
Barometer: 1026 hPa
Visibility: More than 6 mi
Cloud details: Clear ft
EGNM 301050Z 08009KT 050V130 CAVOK 17/07 Q1026
 

Script developed by  Saratoga-weather.org Adapted for the template by  Weerstation Leuven

You find our weather info also at:

UK Metoffice

WeatherCloud

WeatherlinkIP

Equipment we use:

Weather-station
Davis VP2

Weather-program
Weather Display

Weather-server
My Computer

Provider
Fasthosts

Davis VP2

Weather Display

My Computer

Fasthosts

 Banner1
iom-flag.gif  iom-flag.gif
Flag Counter 

Hits since site created in 2003